Kontich, Belgium
Current Conditions -  °F | °C
As of 8:50 AM on Thursday 23 Oct 2014 (Local Time) from EBAW Reporting Station
Scattered Clouds Scattered Clouds  
Wind Chill: 50°   Ceiling: Unl
Heat Index: 50°   Visibility: 6mi
Dew Point: 45°   Wind: 7mph
Humidity: 82%   Direction: 210°SSW
Pressure: 30.21"   Gusts: NA
Location:  51.13°N, 4.45°E
Report Text: EBAW 230650Z 21006KT 9999 SCT033 10/07 Q1023 NOSIG
Loading
Personal Weather Stations






























Interactive Weather Map
Tropical Storm Tracking
New forecast layout! Learn more

10-Day Weather Forecast

Advertisements
Track Severe Weather on mobile